createdAt,value
2023-02-19T00:01:09.964Z,4.05
2023-02-19T00:03:11.879Z,4.04
2023-02-19T00:05:13.648Z,4.05
2023-02-19T00:07:15.418Z,4.04
2023-02-19T00:09:19.022Z,4.03
2023-02-19T00:11:22.830Z,4.02
2023-02-19T00:13:25.707Z,4.03
2023-02-19T00:15:27.979Z,4.03
2023-02-19T00:17:33.618Z,4.03
2023-02-19T00:19:35.436Z,4.01
2023-02-19T00:21:37.450Z,4.02
2023-02-19T00:23:39.787Z,4.01
2023-02-19T00:25:41.911Z,4.02
2023-02-19T00:27:43.914Z,4.01
2023-02-19T00:29:45.839Z,4.01
2023-02-19T00:31:51.139Z,4.02
2023-02-19T00:33:57.125Z,4.01
2023-02-19T00:36:03.352Z,4.01
2023-02-19T00:38:05.408Z,4.00
2023-02-19T00:40:08.256Z,4.00
2023-02-19T00:42:11.524Z,4.01
2023-02-19T00:44:13.783Z,4.00
2023-02-19T00:46:16.260Z,4.00
2023-02-19T00:48:18.570Z,3.99
2023-02-19T00:50:22.072Z,3.98
2023-02-19T00:52:24.178Z,4.00
2023-02-19T00:54:26.233Z,3.99
2023-02-19T00:56:29.161Z,4.00
2023-02-19T00:58:31.206Z,3.99
2023-02-19T01:00:32.962Z,3.99
2023-02-19T01:02:34.532Z,3.99
2023-02-19T01:04:36.322Z,3.98
2023-02-19T01:06:39.669Z,3.98
2023-02-19T01:08:41.876Z,3.98
2023-02-19T01:10:43.834Z,3.97
2023-02-19T01:12:45.705Z,3.98
2023-02-19T01:14:47.440Z,3.98
2023-02-19T01:16:49.356Z,3.96
2023-02-19T01:18:51.889Z,3.96
2023-02-19T01:20:53.704Z,3.96
2023-02-19T01:22:56.753Z,3.96
2023-02-19T01:24:58.583Z,3.93
2023-02-19T01:27:00.118Z,3.95
2023-02-19T01:29:02.168Z,3.95
2023-02-19T01:31:05.096Z,3.93
2023-02-19T01:33:10.343Z,3.93
2023-02-19T01:35:11.912Z,3.93
2023-02-19T01:37:13.752Z,3.93
2023-02-19T01:39:16.857Z,3.92
2023-02-19T01:41:21.587Z,3.92
2023-02-19T01:43:23.714Z,3.92
2023-02-19T01:45:29.028Z,3.92
2023-02-19T01:47:31.944Z,3.93
2023-02-19T01:49:38.471Z,3.93
2023-02-19T01:51:44.853Z,3.93
2023-02-19T01:53:52.961Z,3.93
2023-02-19T01:55:59.445Z,3.93
2023-02-19T01:58:03.322Z,3.93
2023-02-19T02:00:09.719Z,3.92
2023-02-19T02:02:11.837Z,3.93
2023-02-19T02:04:14.801Z,3.94
2023-02-19T02:06:22.630Z,3.94
2023-02-19T02:08:26.603Z,3.92
2023-02-19T02:10:29.326Z,3.93
2023-02-19T02:12:32.597Z,3.94
2023-02-19T02:14:39.304Z,3.93
2023-02-19T02:16:54.600Z,3.93
2023-02-19T02:19:04.124Z,3.94
2023-02-19T02:21:25.109Z,3.94
2023-02-19T02:23:40.833Z,3.95
2023-02-19T02:26:00.130Z,3.95
2023-02-19T02:28:21.294Z,3.95
2023-02-19T02:30:32.654Z,3.95
2023-02-19T02:32:40.791Z,3.93
2023-02-19T02:34:49.075Z,3.93
2023-02-19T02:37:00.572Z,3.93
2023-02-19T02:39:05.023Z,3.94
2023-02-19T02:41:07.888Z,3.93
2023-02-19T02:43:09.580Z,3.94
2023-02-19T02:45:28.835Z,3.96
2023-02-19T02:47:35.386Z,3.95
2023-02-19T02:49:38.679Z,3.93
2023-02-19T02:51:44.122Z,3.93
2023-02-19T02:53:51.820Z,3.95
2023-02-19T02:55:55.126Z,3.96
2023-02-19T02:57:56.956Z,3.94
2023-02-19T02:59:58.690Z,3.96
2023-02-19T03:02:06.612Z,3.97
2023-02-19T03:04:12.335Z,3.97
2023-02-19T03:06:25.726Z,3.97
2023-02-19T03:08:32.251Z,3.97
2023-02-19T03:10:38.383Z,3.97
2023-02-19T03:12:43.841Z,3.98
2023-02-19T03:14:49.097Z,3.97
2023-02-19T03:16:52.514Z,3.97
2023-02-19T03:18:59.588Z,3.98
2023-02-19T03:21:03.759Z,3.97
2023-02-19T03:23:07.868Z,3.98
2023-02-19T03:25:14.463Z,3.98
2023-02-19T03:27:18.844Z,3.98
2023-02-19T03:29:23.362Z,4.00
2023-02-19T03:31:29.969Z,3.99
2023-02-19T03:33:32.005Z,4.00
2023-02-19T03:35:38.224Z,4.00
2023-02-19T03:37:44.990Z,4.00
2023-02-19T03:39:46.994Z,4.01
2023-02-19T03:41:57.952Z,4.02
2023-02-19T03:44:10.214Z,4.04
2023-02-19T03:46:15.560Z,4.02
2023-02-19T03:48:25.153Z,4.03
2023-02-19T03:50:32.338Z,4.03
2023-02-19T03:52:42.069Z,4.04
2023-02-19T03:54:52.615Z,4.04
2023-02-19T03:57:01.741Z,4.05
2023-02-19T03:59:12.335Z,4.05
2023-02-19T04:01:19.835Z,4.03
2023-02-19T04:03:29.325Z,4.04
2023-02-19T04:05:35.854Z,4.06
2023-02-19T04:07:45.048Z,4.07
2023-02-19T04:09:50.767Z,4.06
2023-02-19T04:11:55.085Z,4.05
2023-02-19T04:14:01.744Z,4.06
2023-02-19T04:16:11.956Z,4.07
2023-02-19T04:18:18.005Z,4.05
2023-02-19T04:20:22.349Z,4.06
2023-02-19T04:22:25.122Z,4.06
2023-02-19T04:24:33.749Z,4.06
2023-02-19T04:26:35.930Z,4.07
2023-02-19T04:28:40.543Z,4.07
2023-02-19T04:30:43.234Z,4.07
2023-02-19T04:32:45.364Z,4.07
2023-02-19T04:34:47.254Z,4.06
2023-02-19T04:36:49.275Z,4.07
2023-02-19T04:38:51.210Z,4.06
2023-02-19T04:40:54.641Z,4.06
2023-02-19T04:42:56.456Z,4.05
2023-02-19T04:44:58.279Z,4.06
2023-02-19T04:47:00.354Z,4.05
2023-02-19T04:49:02.193Z,4.06
2023-02-19T04:51:12.390Z,4.05
2023-02-19T04:53:14.185Z,4.03
2023-02-19T04:55:16.041Z,4.04
2023-02-19T04:57:20.068Z,4.03
2023-02-19T04:59:21.706Z,4.03
2023-02-19T05:01:24.421Z,4.00
2023-02-19T05:03:26.139Z,4.00
2023-02-19T05:05:28.392Z,3.99
2023-02-19T05:07:30.186Z,3.99
2023-02-19T05:09:31.927Z,3.97
2023-02-19T05:11:33.861Z,3.97
2023-02-19T05:13:38.255Z,3.96
2023-02-19T05:15:39.971Z,3.96
2023-02-19T05:17:43.771Z,3.95
2023-02-19T05:19:45.574Z,3.94
2023-02-19T05:21:47.444Z,3.93
2023-02-19T05:23:49.322Z,3.92
2023-02-19T05:25:51.068Z,3.92
2023-02-19T05:27:52.896Z,3.91
2023-02-19T05:29:56.727Z,3.91
2023-02-19T05:31:58.589Z,3.89
2023-02-19T05:34:00.312Z,3.89
2023-02-19T05:36:06.975Z,3.87
2023-02-19T05:38:09.165Z,3.88
2023-02-19T05:40:17.753Z,3.85
2023-02-19T05:42:23.710Z,3.84
2023-02-19T05:44:25.428Z,3.84
2023-02-19T05:46:33.401Z,3.83
2023-02-19T05:48:35.674Z,3.82
2023-02-19T05:50:39.689Z,3.81
2023-02-19T05:52:41.630Z,3.79
2023-02-19T05:54:43.584Z,3.79
2023-02-19T05:56:45.330Z,3.76
2023-02-19T05:59:00.271Z,3.76
2023-02-19T06:01:03.340Z,3.75
2023-02-19T06:03:20.094Z,3.76
2023-02-19T06:05:23.755Z,3.73
2023-02-19T06:07:25.485Z,3.71
2023-02-19T06:09:31.219Z,3.71
2023-02-19T06:11:34.146Z,3.69
2023-02-19T06:13:36.541Z,3.69
2023-02-19T06:15:38.613Z,3.68
2023-02-19T06:17:41.038Z,3.67
2023-02-19T06:19:44.316Z,3.66
2023-02-19T06:21:46.618Z,3.65
2023-02-19T06:23:48.237Z,3.64
2023-02-19T06:25:51.463Z,3.64
2023-02-19T06:27:53.239Z,3.63
2023-02-19T06:29:58.468Z,3.61
2023-02-19T06:32:00.440Z,3.60
2023-02-19T06:34:05.256Z,3.58
2023-02-19T06:36:15.316Z,3.58
2023-02-19T06:38:16.976Z,3.56
2023-02-19T06:40:19.271Z,3.57
2023-02-19T06:42:20.938Z,3.56
2023-02-19T06:44:22.878Z,3.55
2023-02-19T06:46:24.836Z,3.55
2023-02-19T06:48:27.219Z,3.54
2023-02-19T06:50:29.180Z,3.54
2023-02-19T06:52:32.471Z,3.52
2023-02-19T06:54:36.803Z,3.53
2023-02-19T06:56:39.989Z,3.53
2023-02-19T06:58:41.539Z,3.52
2023-02-19T07:00:43.191Z,3.52
2023-02-19T07:02:44.885Z,3.52
2023-02-19T07:04:46.568Z,3.51
2023-02-19T07:06:48.417Z,3.53
2023-02-19T07:08:52.925Z,3.54
2023-02-19T07:10:55.140Z,3.52
2023-02-19T07:12:57.011Z,3.53
2023-02-19T07:14:58.729Z,3.54
2023-02-19T07:17:00.389Z,3.53
2023-02-19T07:19:02.571Z,3.54
2023-02-19T07:21:05.332Z,3.55
2023-02-19T07:23:08.514Z,3.56
2023-02-19T07:25:11.642Z,3.57
2023-02-19T07:27:13.392Z,3.57
2023-02-19T07:29:15.099Z,3.61
2023-02-19T07:31:19.757Z,3.61
2023-02-19T07:33:21.500Z,3.63
2023-02-19T07:35:24.458Z,3.67
2023-02-19T07:37:27.052Z,3.71
2023-02-19T07:39:29.445Z,3.74
2023-02-19T07:41:32.876Z,3.80
2023-02-19T07:43:36.687Z,3.84
2023-02-19T07:45:38.567Z,3.91
2023-02-19T07:47:40.282Z,3.95
2023-02-19T07:49:42.074Z,4.00
2023-02-19T07:51:43.782Z,4.10
2023-02-19T07:53:46.173Z,4.21
2023-02-19T07:55:48.260Z,4.31
2023-02-19T07:57:51.226Z,4.43
2023-02-19T07:59:53.088Z,4.50
2023-02-19T08:01:55.735Z,4.54
2023-02-19T08:03:58.186Z,4.61
2023-02-19T08:05:59.752Z,4.71
2023-02-19T08:08:01.841Z,4.73
2023-02-19T08:10:04.738Z,4.77
2023-02-19T08:12:06.773Z,4.79
2023-02-19T08:14:10.253Z,4.80
2023-02-19T08:16:21.874Z,4.83
2023-02-19T08:18:30.649Z,4.86
2023-02-19T08:20:32.410Z,4.87
2023-02-19T08:22:33.996Z,4.92
2023-02-19T08:24:35.730Z,4.96
2023-02-19T08:26:37.729Z,4.97
2023-02-19T08:28:39.496Z,5.02
2023-02-19T08:30:44.820Z,5.06
2023-02-19T08:32:46.558Z,5.08
2023-02-19T08:34:48.281Z,5.10
2023-02-19T08:36:49.974Z,5.15
2023-02-19T08:38:52.019Z,5.25
2023-02-19T08:40:53.735Z,5.34
2023-02-19T08:42:55.486Z,5.43
2023-02-19T08:44:57.356Z,5.51
2023-02-19T08:47:00.765Z,5.61
2023-02-19T08:49:03.215Z,5.70
2023-02-19T08:51:06.802Z,5.79
2023-02-19T08:53:08.502Z,5.91
2023-02-19T08:55:10.329Z,6.04
2023-02-19T08:57:12.394Z,6.13
2023-02-19T08:59:14.350Z,6.24
2023-02-19T09:01:19.787Z,6.33
2023-02-19T09:03:23.107Z,6.44
2023-02-19T09:05:25.064Z,6.49
2023-02-19T09:07:26.840Z,6.57
2023-02-19T09:09:28.653Z,6.64
2023-02-19T09:11:31.801Z,6.69
2023-02-19T09:13:33.506Z,6.67
2023-02-19T09:15:35.153Z,6.77
2023-02-19T09:17:36.758Z,6.83
2023-02-19T09:19:40.262Z,6.91
2023-02-19T09:21:43.281Z,6.97
2023-02-19T09:23:44.869Z,6.94
2023-02-19T09:25:46.873Z,7.00
2023-02-19T09:27:48.500Z,7.03
2023-02-19T09:29:54.012Z,7.15
2023-02-19T09:32:00.003Z,7.29
2023-02-19T09:34:01.724Z,7.30
2023-02-19T09:36:07.812Z,7.45
2023-02-19T09:38:10.177Z,7.56
2023-02-19T09:40:16.154Z,7.44
2023-02-19T09:42:20.867Z,7.60
2023-02-19T09:44:29.368Z,7.55
2023-02-19T09:46:43.428Z,7.61
2023-02-19T09:48:47.952Z,7.57
2023-02-19T09:50:55.426Z,7.56
2023-02-19T09:53:05.398Z,7.71
2023-02-19T09:55:18.222Z,7.74
2023-02-19T09:57:22.203Z,7.81
2023-02-19T09:59:27.015Z,7.88
2023-02-19T10:01:38.317Z,7.98
2023-02-19T10:03:44.795Z,8.01
2023-02-19T10:05:46.878Z,8.14
2023-02-19T10:07:55.730Z,8.25
2023-02-19T10:10:03.753Z,8.32
2023-02-19T10:12:14.655Z,8.28
2023-02-19T10:14:22.609Z,8.41
2023-02-19T10:16:27.236Z,8.32
2023-02-19T10:18:36.259Z,8.31
2023-02-19T10:20:38.422Z,8.24
2023-02-19T10:22:44.122Z,8.17
2023-02-19T10:24:49.737Z,8.20
2023-02-19T10:26:56.980Z,8.35
2023-02-19T10:28:58.639Z,8.43
2023-02-19T10:31:02.390Z,8.54
2023-02-19T10:33:10.598Z,8.46
2023-02-19T10:35:15.362Z,8.45
2023-02-19T10:37:19.032Z,8.41
2023-02-19T10:39:43.616Z,8.47
2023-02-19T10:41:48.276Z,8.41
2023-02-19T10:44:00.982Z,8.53
2023-02-19T10:46:06.652Z,8.59
2023-02-19T10:48:24.476Z,8.76
2023-02-19T10:50:31.452Z,8.87
2023-02-19T10:52:35.564Z,8.93
2023-02-19T10:54:37.912Z,9.07
2023-02-19T10:56:43.340Z,9.20
2023-02-19T10:58:45.214Z,9.33
2023-02-19T11:00:50.020Z,9.38
2023-02-19T11:03:19.621Z,9.54
2023-02-19T11:05:22.100Z,9.56
2023-02-19T11:07:23.705Z,9.48
2023-02-19T11:09:32.884Z,9.40
2023-02-19T11:11:37.552Z,9.40
2023-02-19T11:13:42.870Z,9.54
2023-02-19T11:15:53.623Z,9.59
2023-02-19T11:17:59.538Z,9.71
2023-02-19T11:20:07.412Z,9.83
2023-02-19T11:22:31.668Z,9.99
2023-02-19T11:24:37.102Z,10.04
2023-02-19T11:26:39.865Z,10.17
2023-02-19T11:28:43.041Z,10.25
2023-02-19T11:30:46.342Z,10.30
2023-02-19T11:32:48.888Z,10.35
2023-02-19T11:34:53.310Z,10.37
2023-02-19T11:37:10.839Z,10.50
2023-02-19T11:39:25.724Z,10.57
2023-02-19T11:41:51.517Z,10.63
2023-02-19T11:44:07.504Z,10.72
2023-02-19T11:46:15.589Z,10.77
2023-02-19T11:48:36.823Z,10.64
2023-02-19T11:50:50.677Z,10.53
2023-02-19T11:53:05.054Z,10.39
2023-02-19T11:55:17.114Z,10.39
2023-02-19T11:57:40.759Z,10.29
2023-02-19T11:59:48.554Z,10.06
2023-02-19T12:02:07.037Z,10.04
2023-02-19T12:04:42.156Z,9.92
2023-02-19T12:06:58.256Z,9.77
2023-02-19T12:09:29.841Z,9.68
2023-02-19T12:11:47.791Z,9.71
2023-02-19T12:14:09.167Z,9.73
2023-02-19T12:16:20.804Z,9.78
2023-02-19T12:19:01.535Z,9.92
2023-02-19T12:21:18.177Z,10.01
2023-02-19T12:23:58.298Z,10.13
2023-02-19T12:26:10.140Z,10.21
2023-02-19T12:28:34.571Z,10.32
2023-02-19T12:30:59.764Z,10.36
2023-02-19T12:33:35.999Z,10.42
2023-02-19T12:35:47.682Z,10.40
2023-02-19T12:37:58.962Z,10.42
2023-02-19T12:40:17.656Z,10.39
2023-02-19T12:42:37.730Z,10.39
2023-02-19T12:44:46.485Z,10.42
2023-02-19T12:46:53.400Z,10.39
2023-02-19T12:49:00.010Z,10.39
2023-02-19T12:51:08.135Z,10.34
2023-02-19T12:53:24.848Z,10.30
2023-02-19T12:55:33.404Z,10.32
2023-02-19T12:57:39.262Z,10.25
2023-02-19T12:59:48.275Z,10.22
2023-02-19T13:01:56.649Z,10.23
2023-02-19T13:04:14.804Z,10.24
2023-02-19T13:06:31.330Z,10.27
2023-02-19T13:08:48.819Z,10.24
2023-02-19T13:11:01.546Z,10.25
2023-02-19T13:13:07.054Z,10.24
2023-02-19T13:15:17.556Z,10.26
2023-02-19T13:17:26.478Z,10.29
2023-02-19T13:19:29.120Z,10.25
2023-02-19T13:21:35.886Z,10.30
2023-02-19T13:23:42.060Z,10.32
2023-02-19T13:25:58.528Z,10.27
2023-02-19T13:28:27.236Z,10.28
2023-02-19T13:30:40.540Z,10.25
2023-02-19T13:33:03.084Z,10.25
2023-02-19T13:35:22.866Z,10.16
2023-02-19T13:37:26.410Z,10.06
2023-02-19T13:39:31.010Z,10.05
2023-02-19T13:41:39.437Z,10.03
2023-02-19T13:43:43.552Z,10.01
2023-02-19T13:45:47.087Z,9.96
2023-02-19T13:47:58.695Z,9.96
2023-02-19T13:50:06.885Z,9.97
2023-02-19T13:52:37.719Z,9.93
2023-02-19T13:54:39.440Z,9.92
2023-02-19T13:56:42.573Z,9.86
2023-02-19T13:58:58.437Z,9.84
2023-02-19T14:01:01.731Z,9.82
2023-02-19T14:03:29.896Z,9.84
2023-02-19T14:06:00.865Z,9.81
2023-02-19T14:08:02.902Z,9.74
2023-02-19T14:10:11.928Z,9.75
2023-02-19T14:12:24.584Z,9.76
2023-02-19T14:14:35.037Z,9.71
2023-02-19T14:16:58.345Z,9.74
2023-02-19T14:18:59.871Z,9.70
2023-02-19T14:21:14.169Z,9.72
2023-02-19T14:23:17.305Z,9.67
2023-02-19T14:25:28.356Z,9.67
2023-02-19T14:27:30.177Z,9.65
2023-02-19T14:29:34.269Z,9.64
2023-02-19T14:31:38.306Z,9.64
2023-02-19T14:33:45.088Z,9.65
2023-02-19T14:35:51.226Z,9.62
2023-02-19T14:37:56.146Z,9.61
2023-02-19T14:39:58.567Z,9.57
2023-02-19T14:42:03.285Z,9.58
2023-02-19T14:44:07.884Z,9.55
2023-02-19T14:46:20.038Z,9.54
2023-02-19T14:48:26.465Z,9.54
2023-02-19T14:50:30.518Z,9.53
2023-02-19T14:52:36.052Z,9.50
2023-02-19T14:54:43.379Z,9.49
2023-02-19T14:56:49.126Z,9.45
2023-02-19T14:59:21.210Z,9.43
2023-02-19T15:01:28.448Z,9.38
2023-02-19T15:03:33.818Z,9.34
2023-02-19T15:05:37.945Z,9.28
2023-02-19T15:07:42.132Z,9.28
2023-02-19T15:09:47.222Z,9.24
2023-02-19T15:11:49.612Z,9.21
2023-02-19T15:13:54.560Z,9.22
2023-02-19T15:15:56.991Z,9.18
2023-02-19T15:18:02.444Z,9.16
2023-02-19T15:20:10.165Z,9.06
2023-02-19T15:22:18.080Z,9.01
2023-02-19T15:24:20.091Z,8.95
2023-02-19T15:26:24.744Z,8.87
2023-02-19T15:28:31.515Z,8.76
2023-02-19T15:30:33.422Z,8.69
2023-02-19T15:32:35.092Z,8.61
2023-02-19T15:34:38.348Z,8.54
2023-02-19T15:36:40.130Z,8.46
2023-02-19T15:38:41.727Z,8.40
2023-02-19T15:40:45.157Z,8.32
2023-02-19T15:42:47.973Z,8.24
2023-02-19T15:44:55.603Z,8.21
2023-02-19T15:47:00.227Z,8.12
2023-02-19T15:49:06.596Z,8.08
2023-02-19T15:51:16.738Z,8.01
2023-02-19T15:53:23.494Z,7.93
2023-02-19T15:55:32.923Z,7.88
2023-02-19T15:57:39.185Z,7.82
2023-02-19T15:59:46.746Z,7.74
2023-02-19T16:01:48.865Z,7.67
2023-02-19T16:03:51.303Z,7.60
2023-02-19T16:06:00.792Z,7.54
2023-02-19T16:08:16.240Z,7.45
2023-02-19T16:10:23.104Z,7.40
2023-02-19T16:12:25.654Z,7.33
2023-02-19T16:14:32.983Z,7.28
2023-02-19T16:16:40.512Z,7.20
2023-02-19T16:18:45.425Z,7.15
2023-02-19T16:20:47.940Z,7.09
2023-02-19T16:22:50.610Z,7.02
2023-02-19T16:24:56.238Z,6.99
2023-02-19T16:26:58.741Z,6.93
2023-02-19T16:29:00.415Z,6.85
2023-02-19T16:31:04.766Z,6.81
2023-02-19T16:33:33.537Z,6.76
2023-02-19T16:35:36.689Z,6.70
2023-02-19T16:37:40.826Z,6.64
2023-02-19T16:39:42.800Z,6.59
2023-02-19T16:42:12.263Z,6.57
2023-02-19T16:44:30.819Z,6.51
2023-02-19T16:46:33.430Z,6.45
2023-02-19T16:48:36.845Z,6.41
2023-02-19T16:50:40.126Z,6.36
2023-02-19T16:52:52.034Z,6.30
2023-02-19T16:54:53.621Z,6.25
2023-02-19T16:56:55.687Z,6.19
2023-02-19T16:58:58.919Z,6.14
2023-02-19T17:01:00.559Z,6.09
2023-02-19T17:03:07.201Z,6.03
2023-02-19T17:05:09.075Z,6.02
2023-02-19T17:07:14.334Z,5.96
2023-02-19T17:09:16.187Z,5.93
2023-02-19T17:11:18.218Z,5.86
2023-02-19T17:13:19.975Z,5.85
2023-02-19T17:15:23.197Z,5.82
2023-02-19T17:17:24.781Z,5.78
2023-02-19T17:19:26.356Z,5.75
2023-02-19T17:21:29.613Z,5.71
2023-02-19T17:23:31.171Z,5.67
2023-02-19T17:25:32.740Z,5.65
2023-02-19T17:27:34.660Z,5.61
2023-02-19T17:29:36.490Z,5.58
2023-02-19T17:31:39.556Z,5.55
2023-02-19T17:33:41.540Z,5.51
2023-02-19T17:35:43.090Z,5.48
2023-02-19T17:37:44.740Z,5.44
2023-02-19T17:39:46.334Z,5.40
2023-02-19T17:41:47.855Z,5.39
2023-02-19T17:43:49.683Z,5.36
2023-02-19T17:45:51.593Z,5.32
2023-02-19T17:47:54.740Z,5.30
2023-02-19T17:49:56.282Z,5.27
2023-02-19T17:51:58.073Z,5.24
2023-02-19T17:53:59.781Z,5.21
2023-02-19T17:56:01.462Z,5.17
2023-02-19T17:58:04.617Z,5.15
2023-02-19T18:00:07.580Z,5.12
2023-02-19T18:02:09.484Z,5.11
2023-02-19T18:04:12.612Z,5.07
2023-02-19T18:06:14.244Z,5.03
2023-02-19T18:08:16.126Z,5.02
2023-02-19T18:10:19.649Z,5.00
2023-02-19T18:12:21.322Z,4.97
2023-02-19T18:14:23.396Z,4.97
2023-02-19T18:16:25.169Z,4.94
2023-02-19T18:18:26.733Z,4.90
2023-02-19T18:20:29.957Z,4.85
2023-02-19T18:22:32.082Z,4.86
2023-02-19T18:24:33.597Z,4.84
2023-02-19T18:26:35.126Z,4.83
2023-02-19T18:28:37.452Z,4.80
2023-02-19T18:30:39.074Z,4.78
2023-02-19T18:32:41.010Z,4.78
2023-02-19T18:34:42.659Z,4.77
2023-02-19T18:36:45.926Z,4.75
2023-02-19T18:38:47.752Z,4.74
2023-02-19T18:40:49.804Z,4.73
2023-02-19T18:42:51.502Z,4.71
2023-02-19T18:44:53.657Z,4.69
2023-02-19T18:46:55.214Z,4.68
2023-02-19T18:48:56.757Z,4.67
2023-02-19T18:50:58.311Z,4.64
2023-02-19T18:53:01.344Z,4.65
2023-02-19T18:55:03.056Z,4.62
2023-02-19T18:57:04.713Z,4.62
2023-02-19T18:59:06.342Z,4.58
2023-02-19T19:01:08.139Z,4.58
2023-02-19T19:03:09.707Z,4.58
2023-02-19T19:05:11.608Z,4.56
2023-02-19T19:07:13.155Z,4.56
2023-02-19T19:09:16.037Z,4.54
2023-02-19T19:11:19.100Z,4.52
2023-02-19T19:13:20.612Z,4.49
2023-02-19T19:15:23.049Z,4.48
2023-02-19T19:17:24.660Z,4.46
2023-02-19T19:19:26.264Z,4.46
2023-02-19T19:21:27.888Z,4.42
2023-02-19T19:23:29.514Z,4.42
2023-02-19T19:25:32.765Z,4.40
2023-02-19T19:27:34.863Z,4.39
2023-02-19T19:29:36.478Z,4.38
2023-02-19T19:31:38.108Z,4.37
2023-02-19T19:33:40.718Z,4.37
2023-02-19T19:35:42.506Z,4.35
2023-02-19T19:37:44.082Z,4.32
2023-02-19T19:39:45.932Z,4.32
2023-02-19T19:41:54.030Z,4.32
2023-02-19T19:43:56.086Z,4.29
2023-02-19T19:45:58.140Z,4.28
2023-02-19T19:47:59.799Z,4.29
2023-02-19T19:50:01.492Z,4.26
2023-02-19T19:52:03.261Z,4.26
2023-02-19T19:54:04.885Z,4.25
2023-02-19T19:56:07.721Z,4.23
2023-02-19T19:58:11.332Z,4.22
2023-02-19T20:00:15.053Z,4.21
2023-02-19T20:02:17.690Z,4.21
2023-02-19T20:04:20.713Z,4.19
2023-02-19T20:06:24.555Z,4.19
2023-02-19T20:08:26.171Z,4.18
2023-02-19T20:10:27.904Z,4.18
2023-02-19T20:12:29.479Z,4.15
2023-02-19T20:14:32.459Z,4.16
2023-02-19T20:16:33.980Z,4.15
2023-02-19T20:18:35.608Z,4.16
2023-02-19T20:20:37.393Z,4.13
2023-02-19T20:22:39.023Z,4.14
2023-02-19T20:24:40.912Z,4.12
2023-02-19T20:26:43.317Z,4.11
2023-02-19T20:28:44.874Z,4.11
2023-02-19T20:30:47.827Z,4.12
2023-02-19T20:32:50.476Z,4.11
2023-02-19T20:34:52.105Z,4.11
2023-02-19T20:36:57.287Z,4.11
2023-02-19T20:38:58.892Z,4.11
2023-02-19T20:41:00.448Z,4.11
2023-02-19T20:43:02.250Z,4.10
2023-02-19T20:45:04.184Z,4.10
2023-02-19T20:47:08.116Z,4.10
2023-02-19T20:49:09.915Z,4.11
2023-02-19T20:51:11.762Z,4.12
2023-02-19T20:53:13.657Z,4.11
2023-02-19T20:55:15.300Z,4.11
2023-02-19T20:57:16.926Z,4.13
2023-02-19T20:59:20.123Z,4.14
2023-02-19T21:01:25.882Z,4.14
2023-02-19T21:03:28.863Z,4.16
2023-02-19T21:05:30.363Z,4.16
2023-02-19T21:07:32.211Z,4.18
2023-02-19T21:09:33.746Z,4.18
2023-02-19T21:11:37.271Z,4.18
2023-02-19T21:13:38.867Z,4.20
2023-02-19T21:15:40.729Z,4.20
2023-02-19T21:17:45.062Z,4.23
2023-02-19T21:19:50.233Z,4.25
2023-02-19T21:21:52.014Z,4.26
2023-02-19T21:23:53.983Z,4.27
2023-02-19T21:25:55.506Z,4.29
2023-02-19T21:27:57.434Z,4.31
2023-02-19T21:29:59.231Z,4.32
2023-02-19T21:32:00.942Z,4.34
2023-02-19T21:34:04.383Z,4.35
2023-02-19T21:36:09.651Z,4.37
2023-02-19T21:38:11.342Z,4.39
2023-02-19T21:40:13.825Z,4.39
2023-02-19T21:42:15.651Z,4.39
2023-02-19T21:44:17.775Z,4.41
2023-02-19T21:46:19.880Z,4.42
2023-02-19T21:48:22.235Z,4.41
2023-02-19T21:50:24.331Z,4.43
2023-02-19T21:52:27.317Z,4.41
2023-02-19T21:54:28.862Z,4.42
2023-02-19T21:56:32.589Z,4.43
2023-02-19T21:58:35.140Z,4.43
2023-02-19T22:00:36.724Z,4.41
2023-02-19T22:02:38.417Z,4.40
2023-02-19T22:04:40.014Z,4.40
2023-02-19T22:06:42.273Z,4.38
2023-02-19T22:08:45.332Z,4.40
2023-02-19T22:10:47.367Z,4.39
2023-02-19T22:12:48.909Z,4.38
2023-02-19T22:14:50.432Z,4.37
2023-02-19T22:16:52.041Z,4.34
2023-02-19T22:18:55.588Z,4.35
2023-02-19T22:20:57.263Z,4.35
2023-02-19T22:22:58.764Z,4.33
2023-02-19T22:25:01.733Z,4.32
2023-02-19T22:27:03.793Z,4.32
2023-02-19T22:29:05.702Z,4.29
2023-02-19T22:31:08.314Z,4.27
2023-02-19T22:33:10.227Z,4.27
2023-02-19T22:35:13.748Z,4.26
2023-02-19T22:37:16.546Z,4.26
2023-02-19T22:39:21.266Z,4.25
2023-02-19T22:41:24.280Z,4.22
2023-02-19T22:43:25.821Z,4.22
2023-02-19T22:45:27.574Z,4.21
2023-02-19T22:47:29.371Z,4.21
2023-02-19T22:49:31.479Z,4.21
2023-02-19T22:51:34.037Z,4.21
2023-02-19T22:53:35.685Z,4.19
2023-02-19T22:55:37.402Z,4.18
2023-02-19T22:57:40.342Z,4.17
2023-02-19T22:59:41.985Z,4.17
2023-02-19T23:01:43.682Z,4.17
2023-02-19T23:03:46.662Z,4.16
2023-02-19T23:05:48.518Z,4.15
2023-02-19T23:07:50.735Z,4.15
2023-02-19T23:09:52.557Z,4.15
2023-02-19T23:12:01.332Z,4.15
2023-02-19T23:14:05.315Z,4.16
2023-02-19T23:16:07.292Z,4.15
2023-02-19T23:18:08.940Z,4.16
2023-02-19T23:20:11.298Z,4.16
2023-02-19T23:22:12.838Z,4.15
2023-02-19T23:24:14.534Z,4.14
2023-02-19T23:26:17.164Z,4.15
2023-02-19T23:28:18.774Z,4.17
2023-02-19T23:30:22.223Z,4.17
2023-02-19T23:32:24.394Z,4.15
2023-02-19T23:34:26.019Z,4.17
2023-02-19T23:36:27.610Z,4.15
2023-02-19T23:38:29.504Z,4.17
2023-02-19T23:40:31.178Z,4.15
2023-02-19T23:42:32.732Z,4.15
2023-02-19T23:44:34.299Z,4.14
2023-02-19T23:46:37.256Z,4.16
2023-02-19T23:48:38.887Z,4.16
2023-02-19T23:50:40.568Z,4.16
2023-02-19T23:52:42.295Z,4.14
2023-02-19T23:54:43.862Z,4.15
2023-02-19T23:56:45.482Z,4.15
2023-02-19T23:58:47.398Z,4.13
